Norwegian Wind — C6LG6 — position and weather

sailwx.info

Track history (hours):
 
Tides and Currents Weather Stations Pressure Air Temp Water Temp Dewpoint Dewpoint Depression Visibility Wind Speed Wind Dir Waves Ship Positions

Norwegian Wind

Operator: Norwegian Cruise Line

Last reported at 2018-Dec-11 07:20 UTC. Time now 2018-Dec-11 07:39 UTC.
Position N 25°08' E 121°45'.

Type: Passenger vessel. MMSI: 308273000.

Date/timePositionNaut miles runAvg speedWind from/ knotsBaromVisibWave heightAir tempDewpointWater temp
2018-Dec-11 07:20N 25°08' E 121°45'0 0.0
2018-Dec-11 06:50N 25°08' E 121°45'0 0.0
2018-Dec-11 06:26N 25°08' E 121°45'1 3.2
2018-Dec-11 05:59N 25°09' E 121°45'5 9.6
2018-Dec-11 05:28N 25°14' E 121°48'611.6
2018-Dec-11 04:55N 25°13' E 121°55'511.4
2018-Dec-11 04:30N 25°12' E 121°60'510.8
2018-Dec-11 04:00N 25°11' E 122°06'611.2
2018-Dec-11 03:26N 25°11' E 122°13'510.7
2018-Dec-11 03:00N 25°10' E 122°18'4898.9
2018-Dec-11 03:00N 25°06' E 122°18'1019.5 010 / 251015.810.8 22.020.626.7
2018-Dec-11 02:29N 25°16' E 122°19'610.9
2018-Dec-11 01:59N 25°21' E 122°18'36 7.3
2018-Dec-10 21:00N 25°54' E 122°36'6421.2 330 / 171014.7 5.4 23.021.626.7
2018-Dec-10 18:00N 26°54' E 123°00'8113.4 130 / 141016.8 5.4 23.021.626.3
2018-Dec-10 12:00N 25°54' E 124°00'24 8.1 090 / 191016.610.8 23.021.626.7
2018-Dec-10 09:00N 25°36' E 124°18'56 9.4 080 / 191014.7 5.4 23.021.626.7
2018-Dec-10 03:00N 25°00' E 125°06'44 7.3 060 / 451015.4 5.4 23.021.626.5
2018-Dec-09 21:00N 24°54' E 124°18'28 9.3 030 / 311015.4 2.2 22.020.626.5
2018-Dec-09 18:00N 25°00' E 123°48'3912.8 050 / 211016.3 5.4 21.520.025.9
2018-Dec-09 15:00N 25°06' E 123°06'3912.3 070 / 231018.6 5.4 20.018.523.4
2018-Dec-09 11:48N 25°09' E 122°23'512.9
2018-Dec-09 11:24N 25°10' E 122°17'613.2
2018-Dec-09 10:58N 25°11' E 122°11'713.2
2018-Dec-09 10:25N 25°11' E 122°03'513.0
2018-Dec-09 10:00N 25°11' E 121°57'712.9
2018-Dec-09 09:28N 25°12' E 121°50'5 9.7
2018-Dec-09 08:57N 25°09' E 121°45'1 2.2
2018-Dec-09 08:25N 25°08' E 121°45'0 0.0
2018-Dec-09 07:47N 25°08' E 121°45'0 0.0
2018-Dec-09 07:23N 25°08' E 121°45'0 0.0
2018-Dec-09 06:59N 25°08' E 121°45'0 0.0
2018-Dec-09 06:29N 25°08' E 121°45'0 0.0
2018-Dec-09 05:59N 25°08' E 121°45'0 0.0
2018-Dec-09 05:26N 25°08' E 121°45'0 0.0
2018-Dec-09 04:55N 25°08' E 121°45'0 0.0
2018-Dec-09 04:20N 25°08' E 121°45'0 0.0
2018-Dec-09 03:59N 25°08' E 121°45'0 0.0
2018-Dec-09 03:29N 25°08' E 121°45'0 0.0
2018-Dec-09 02:59N 25°08' E 121°45'0 0.0
2018-Dec-09 02:30N 25°08' E 121°45'2 3.1
2018-Dec-09 01:55N 25°10' E 121°45'513.1
2018-Dec-09 01:30N 25°15' E 121°45'1015.1
2018-Dec-09 00:52N 25°24' E 121°48'611.9
2018-Dec-09 00:22N 25°30' E 121°50'4 9.6
2018-Dec-08 23:55N 25°34' E 121°51'4 9.3
2018-Dec-08 23:28N 25°38' E 121°53'5 9.8
2018-Dec-08 22:57N 25°43' E 121°54'11 5.7
2018-Dec-08 21:00N 25°54' E 121°54'3210.6 040 / 331022.6 5.4 16.016.023.4
2018-Dec-08 18:00N 26°24' E 122°06'56 9.4 030 / 231023.6 5.4 17.011.924.2
2018-Dec-08 12:00N 27°18' E 122°24'3812.5 020 / 251025.610.8 16.012.723.0
2018-Dec-08 09:00N 27°54' E 122°36'6610.9 030 / 291025.710.8 15.011.623.0
2018-Dec-08 03:00N 26°54' E 122°06'25 8.2 020 / 251025.410.8 17.013.724.5
2018-Dec-08 00:00N 26°30' E 122°00'3010.0 050 / 331024.410.8 27.024.324.5
2018-Dec-07 21:00N 26°00' E 122°00'13 6.9 020 / 311022.4 5.4 26.024.623.2
2018-Dec-07 19:04N 25°47' E 121°56'2 8.6
2018-Dec-07 18:52N 25°46' E 121°55'6 8.2
2018-Dec-07 18:10N 25°40' E 121°55'23134.3
2018-Dec-07 18:00N 25°18' E 121°48'21284.2 030 / 351019.6 5.4 18.014.822.6
2018-Dec-07 17:55N 25°38' E 121°55'4 8.8
2018-Dec-07 17:29N 25°34' E 121°54'4 7.5
2018-Dec-07 16:56N 25°30' E 121°53'2 5.7
2018-Dec-07 16:30N 25°28' E 121°52'3 5.6
2018-Dec-07 15:59N 25°25' E 121°51'3 6.0
2018-Dec-07 15:26N 25°22' E 121°50'4 9.6
2018-Dec-07 15:00N 25°18' E 121°48'1352.4 020 / 271021.910.8 19.017.524.1
2018-Dec-07 14:59N 25°19' E 121°49'5 6.8
2018-Dec-07 14:18N 25°15' E 121°47'2 7.2
2018-Dec-07 14:00N 25°13' E 121°46'5 9.5
2018-Dec-07 13:30N 25°08' E 121°45'0 0.3
2018-Dec-07 12:55N 25°08' E 121°45'0 0.0
2018-Dec-07 12:25N 25°08' E 121°45'3 7.2
2018-Dec-07 12:00N 25°06' E 121°42'345.7 050 / 81021.7 5.4 19.017.524.1
2018-Dec-07 11:55N 25°08' E 121°45'0 0.0
2018-Dec-07 11:26N 25°08' E 121°45'0 0.0
2018-Dec-07 10:55N 25°08' E 121°45'0 0.0
2018-Dec-07 10:27N 25°08' E 121°45'0 0.0
2018-Dec-07 09:57N 25°08' E 121°45'0 0.0
2018-Dec-07 09:27N 25°08' E 121°45'3 6.9
2018-Dec-07 09:00N 25°06' E 121°42'345.5 040 / 121020.0 2.2 18.016.424.1
2018-Dec-07 08:55N 25°08' E 121°45'0 0.0
2018-Dec-07 08:28N 25°08' E 121°45'0 0.0
2018-Dec-07 07:58N 25°08' E 121°45'0 0.5
2018-Dec-07 07:30N 25°08' E 121°45'4 6.4
2018-Dec-07 06:57N 25°12' E 121°45'5 9.8
2018-Dec-07 06:24N 25°13' E 121°50'512.4
2018-Dec-07 05:58N 25°11' E 121°56'47 4.1
2018-Dec-06 18:36N 24°40' E 122°35'110.0
2018-Dec-06 18:27N 24°42' E 122°35'4 9.0
2018-Dec-06 18:00N 24°42' E 122°30'499.6 020 / 271015.2 5.4 22.020.626.6
2018-Dec-06 17:57N 24°46' E 122°31'510.3
2018-Dec-06 17:27N 24°48' E 122°26'810.1
2018-Dec-06 16:39N 24°53' E 122°19'2210.8
2018-Dec-06 14:36N 25°08' E 122°01'211.2
2018-Dec-06 14:25N 25°09' E 121°59'410.1
2018-Dec-06 13:59N 25°11' E 121°55'5 9.5
2018-Dec-06 13:28N 25°12' E 121°49'4 8.7
2018-Dec-06 13:00N 25°11' E 121°45'3 4.7
2018-Dec-06 12:24N 25°08' E 121°45'3 7.6
2018-Dec-06 12:00N 25°06' E 121°42'321.9 040 / 81016.2 5.4 21.019.524.0
2018-Dec-06 11:51N 25°08' E 121°45'0 0.0
2018-Dec-06 11:27N 25°08' E 121°45'0 0.0
2018-Dec-06 10:57N 25°08' E 121°45'0 0.0
2018-Dec-06 10:27N 25°08' E 121°45'0 0.0
2018-Dec-06 09:57N 25°08' E 121°45'0 0.0
2018-Dec-06 09:27N 25°08' E 121°45'3 6.8
2018-Dec-06 09:00N 25°06' E 121°42'375.1 030 / 121013.8 2.2 22.020.624.0
2018-Dec-06 08:57N 25°08' E 121°45'0 0.0
2018-Dec-06 08:27N 25°08' E 121°45'0 0.0
2018-Dec-06 07:57N 25°08' E 121°45'0 0.0
2018-Dec-06 07:30N 25°08' E 121°45'0 0.0
2018-Dec-06 07:00N 25°08' E 121°45'0 0.0
2018-Dec-06 06:30N 25°08' E 121°45'0 0.0
2018-Dec-06 06:00N 25°08' E 121°45'0 0.0
2018-Dec-06 05:26N 25°08' E 121°45'1 2.8
2018-Dec-06 04:59N 25°09' E 121°45'713.1
2018-Dec-06 04:26N 25°16' E 121°45'511.5
2018-Dec-06 03:59N 25°21' E 121°44'1 2.0
2018-Dec-06 03:30N 25°22' E 121°44'5 9.1
2018-Dec-06 03:00N 25°18' E 121°42'5 8.9 020 / 121014.3 5.4 26.024.624.8
2018-Dec-06 02:24N 25°23' E 121°44'0 0.1
2018-Dec-06 02:00N 25°23' E 121°44'1 0.9
2018-Dec-06 01:24N 25°23' E 121°44'1 1.5
2018-Dec-06 01:00N 25°22' E 121°45'1 2.0
2018-Dec-06 00:27N 25°22' E 121°46'511.4
2018-Dec-06 00:00N 25°18' E 121°42'639.8 140 / 81014.3 5.4 22.020.624.8
2018-Dec-05 23:51N 25°21' E 121°47'1 1.8
2018-Dec-05 23:25N 25°21' E 121°48'1 2.3
2018-Dec-05 22:53N 25°21' E 121°49'1 2.2
2018-Dec-05 22:25N 25°20' E 121°50'1 1.9
2018-Dec-05 21:56N 25°20' E 121°51'1 1.3
2018-Dec-05 21:29N 25°20' E 121°52'1 1.1
2018-Dec-05 20:55N 25°21' E 121°53'0 1.0
2018-Dec-05 20:29N 25°21' E 121°53'0 0.8
2018-Dec-05 19:58N 25°21' E 121°53'0 1.0
2018-Dec-05 19:27N 25°22' E 121°53'1 1.4
2018-Dec-05 19:00N 25°22' E 121°53'1 1.9
2018-Dec-05 18:28N 25°23' E 121°53'1 2.1
2018-Dec-05 18:00N 25°24' E 121°52'4487.1
2018-Dec-05 18:00N 25°24' E 121°48'4 6.8 150 / 41012.8 5.4 22.020.623.4
2018-Dec-05 17:27N 25°25' E 121°52'1 1.3
2018-Dec-05 16:58N 25°26' E 121°51'1 1.8
2018-Dec-05 16:29N 25°26' E 121°50'1 1.8
2018-Dec-05 15:55N 25°27' E 121°50'1 1.8
2018-Dec-05 15:28N 25°28' E 121°49'4 8.4
2018-Dec-05 15:00N 25°24' E 121°48'51145.2 120 / 81015.610.8 22.020.627.3
2018-Dec-05 14:59N 25°29' E 121°50'5 9.8
2018-Dec-05 14:30N 25°24' E 121°52'5 9.7
2018-Dec-05 13:57N 25°20' E 121°56'4 9.2
2018-Dec-05 13:30N 25°17' E 121°58'610.7
2018-Dec-05 12:58N 25°12' E 122°02'511.1
2018-Dec-05 12:30N 25°09' E 122°06'611.8
2018-Dec-05 12:00N 25°06' E 122°12'3310.9 090 / 141015.610.8 23.020.127.3
2018-Dec-05 09:00N 25°06' E 122°48'6410.7 060 / 171014.410.8 24.019.627.3
2018-Dec-05 03:00N 24°42' E 123°54'33 5.5 040 / 331016.3 5.4 24.021.127.1
2018-Dec-04 21:00N 24°36' E 123°18'3014.9 020 / 271015.0 5.4 23.021.627.1
2018-Dec-04 19:00N 24°48' E 122°48'4910.1 020 / 291015.1 5.4 24.021.127.1
2018-Dec-04 14:06N 25°09' E 121°59'217.1
2018-Dec-04 14:00N 25°10' E 121°57'1016.2
2018-Dec-04 13:24N 25°12' E 121°47'4 9.8
2018-Dec-04 12:58N 25°08' E 121°45'0 0.2
2018-Dec-04 12:29N 25°08' E 121°45'3 6.7
2018-Dec-04 12:00N 25°06' E 121°42'323.2 040 / 101016.3 5.4 23.020.124.1
2018-Dec-04 11:51N 25°08' E 121°45'0 0.0
2018-Dec-04 11:21N 25°08' E 121°45'0 0.0
2018-Dec-04 10:58N 25°08' E 121°45'0 0.0
2018-Dec-04 10:27N 25°08' E 121°45'0 0.0
2018-Dec-04 09:57N 25°08' E 121°45'0 0.0
2018-Dec-04 09:27N 25°08' E 121°45'3 7.0
2018-Dec-04 09:00N 25°06' E 121°42'388.7 320 / 41013.3 5.4 26.021.824.1
2018-Dec-04 08:57N 25°08' E 121°45'0 0.0
2018-Dec-04 08:30N 25°08' E 121°45'0 0.0
2018-Dec-04 08:00N 25°08' E 121°45'0 0.0
2018-Dec-04 07:30N 25°08' E 121°45'0 0.0
2018-Dec-04 07:00N 25°08' E 121°45'0 0.0
2018-Dec-04 06:30N 25°08' E 121°45'2 3.9
2018-Dec-04 05:53N 25°11' E 121°45'411.7
2018-Dec-04 05:30N 25°14' E 121°48'812.6
2018-Dec-04 04:53N 25°14' E 121°56'410.0
2018-Dec-04 04:27N 25°14' E 122°01'5 9.0
2018-Dec-04 03:56N 25°13' E 122°06'4 8.9
2018-Dec-04 03:29N 25°12' E 122°10'918.5
2018-Dec-04 03:00N 25°06' E 122°18'557.5 190 / 41015.6 5.4 25.020.726.8
2018-Dec-04 02:54N 25°11' E 122°17'6210.5
2018-Dec-03 21:00N 25°00' E 123°24'3316.3 170 / 171014.6 5.4 24.022.626.8
2018-Dec-03 19:00N 25°00' E 124°00'66 8.3 160 / 161014.210.8 25.023.626.7
2018-Dec-03 11:00N 24°48' E 125°12'0 0.0 090 / 81014.810.8 24.021.126.6
2018-Dec-03 06:00N 24°48' E 125°12'0 0.0 100 / 141014.410.8 24.021.126.2
2018-Dec-03 03:00N 24°48' E 125°12'49 8.2 180 / 101017.1 2.2 25.022.226.7
2018-Dec-02 21:00N 24°54' E 124°18'3316.6 180 / 101015.510.8 23.023.026.7
2018-Dec-02 19:00N 25°00' E 123°42'38 9.5 180 / 171013.410.8 24.022.626.6
2018-Dec-02 15:00N 25°00' E 123°00'3311.1 130 / 81015.010.8 24.022.623.7
2018-Dec-02 12:00N 25°06' E 122°24'7 9.5 190 / 161015.010.8 24.021.123.7
2018-Dec-02 11:14N 25°10' E 122°17'311.1
2018-Dec-02 10:55N 25°10' E 122°13'711.4
2018-Dec-02 10:16N 25°11' E 122°05'514.8
2018-Dec-02 09:56N 25°12' E 121°60'814.7
2018-Dec-02 09:23N 25°13' E 121°51'613.3
2018-Dec-02 08:57N 25°10' E 121°45'2 4.8
2018-Dec-02 08:28N 25°08' E 121°45'0 0.0
2018-Dec-02 07:55N 25°08' E 121°45'0 0.0
2018-Dec-02 07:25N 25°08' E 121°45'0 0.0
2018-Dec-02 06:55N 25°08' E 121°45'0 0.0
2018-Dec-02 06:25N 25°08' E 121°45'3 7.3
2018-Dec-02 06:00N 25°06' E 121°42'344.8 170 / 41011.610.8 27.022.823.7
2018-Dec-02 05:55N 25°08' E 121°45'0 0.0
2018-Dec-02 05:24N 25°08' E 121°45'0 0.0
2018-Dec-02 05:00N 25°08' E 121°45'0 0.0
2018-Dec-02 04:25N 25°08' E 121°45'0 0.0
2018-Dec-02 04:00N 25°08' E 121°45'0 0.0
2018-Dec-02 03:28N 25°08' E 121°45'3 6.6
2018-Dec-02 03:00N 25°06' E 121°42'388.1 190 / 41014.210.8 27.022.824.1
2018-Dec-02 02:57N 25°08' E 121°45'0 0.0
2018-Dec-02 02:28N 25°08' E 121°45'1 2.3
2018-Dec-02 01:52N 25°09' E 121°45'412.3
2018-Dec-02 01:30N 25°14' E 121°45'611.6
2018-Dec-02 00:57N 25°20' E 121°46'610.9
2018-Dec-02 00:26N 25°25' E 121°47'1 1.6
2018-Dec-01 23:57N 25°26' E 121°47'0 0.2
2018-Dec-01 23:27N 25°26' E 121°47'0 0.1
2018-Dec-01 22:51N 25°26' E 121°47'0 0.8
2018-Dec-01 22:23N 25°27' E 121°47'0 0.6
2018-Dec-01 21:58N 25°27' E 121°47'1 1.7
2018-Dec-01 21:29N 25°27' E 121°47'510.9
2018-Dec-01 21:00N 25°24' E 121°42'5162.3 110 / 161014.210.8 21.019.524.1
2018-Dec-01 20:58N 25°29' E 121°41'510.9
2018-Dec-01 20:29N 25°29' E 121°35'3 6.7
2018-Dec-01 20:00N 25°27' E 121°32'1 1.7
2018-Dec-01 19:30N 25°28' E 121°33'1 1.9
2018-Dec-01 18:56N 25°28' E 121°34'1 1.9
2018-Dec-01 18:29N 25°29' E 121°35'612.5
2018-Dec-01 18:00N 25°24' E 121°30'7442.4 090 / 171014.610.8 23.020.124.2
2018-Dec-01 17:59N 25°29' E 121°35'1 1.6
2018-Dec-01 17:30N 25°29' E 121°36'1 1.5
2018-Dec-01 17:00N 25°29' E 121°37'1 2.0
2018-Dec-01 16:26N 25°29' E 121°38'611.1
2018-Dec-01 15:53N 25°23' E 121°38'4 9.3
2018-Dec-01 15:26N 25°22' E 121°34'511.3
2018-Dec-01 15:00N 25°18' E 121°30'4114.1 090 / 231015.610.8 24.021.124.9
2018-Dec-01 14:57N 25°22' E 121°31'1 1.6
2018-Dec-01 14:26N 25°23' E 121°31'1 1.7
2018-Dec-01 13:54N 25°23' E 121°30'1 1.7
2018-Dec-01 13:29N 25°24' E 121°29'1 1.8
2018-Dec-01 12:58N 25°24' E 121°29'1 1.9
2018-Dec-01 12:16N 25°25' E 121°28'413.0
2018-Dec-01 12:00N 25°24' E 121°24'352.6 070 / 231016.010.8 23.020.124.9
2018-Dec-01 11:56N 25°26' E 121°27'1 1.6
2018-Dec-01 11:30N 25°26' E 121°27'1 1.6
2018-Dec-01 11:00N 25°27' E 121°27'2 3.7
2018-Dec-01 10:27N 25°26' E 121°25'4 6.4
2018-Dec-01 09:47N 25°24' E 121°29'411.5
2018-Dec-01 09:26N 25°25' E 121°33'511.8
2018-Dec-01 09:00N 25°26' E 121°39'3906.2
2018-Dec-01 09:00N 25°24' E 121°36'817.1 090 / 141014.810.8 26.021.824.9
2018-Dec-01 08:30N 25°25' E 121°45'713.1
2018-Dec-01 07:59N 25°21' E 121°51'713.0
2018-Dec-01 07:26N 25°16' E 121°57'  
Track history (hours):
 
Tides and Currents Weather Stations Pressure Air Temp Water Temp Dewpoint Dewpoint Depression Visibility Wind Speed Wind Dir Waves Ship Positions

Norwegian Wind

Operator: Norwegian Cruise Line

Last reported at 2018-Dec-11 07:20 UTC. Time now 2018-Dec-11 07:39 UTC.
Position N 25°08' E 121°45'.

Type: Passenger vessel. MMSI: 308273000.

Date/timePositionNaut miles runAvg speedWind from/ knotsBaromVisibWave heightAir tempDewpointWater temp
2018-Dec-11 07:20N 25°08' E 121°45'0 0.0
2018-Dec-11 06:50N 25°08' E 121°45'0 0.0
2018-Dec-11 06:26N 25°08' E 121°45'1 3.2
2018-Dec-11 05:59N 25°09' E 121°45'5 9.6
2018-Dec-11 05:28N 25°14' E 121°48'611.6
2018-Dec-11 04:55N 25°13' E 121°55'511.4
2018-Dec-11 04:30N 25°12' E 121°60'510.8
2018-Dec-11 04:00N 25°11' E 122°06'611.2
2018-Dec-11 03:26N 25°11' E 122°13'510.7
2018-Dec-11 03:00N 25°10' E 122°18'4898.9
2018-Dec-11 03:00N 25°06' E 122°18'1019.5 010 / 251015.810.8 22.020.626.7
2018-Dec-11 02:29N 25°16' E 122°19'610.9
2018-Dec-11 01:59N 25°21' E 122°18'36 7.3
2018-Dec-10 21:00N 25°54' E 122°36'6421.2 330 / 171014.7 5.4 23.021.626.7
2018-Dec-10 18:00N 26°54' E 123°00'8113.4 130 / 141016.8 5.4 23.021.626.3
2018-Dec-10 12:00N 25°54' E 124°00'24 8.1 090 / 191016.610.8 23.021.626.7
2018-Dec-10 09:00N 25°36' E 124°18'56 9.4 080 / 191014.7 5.4 23.021.626.7
2018-Dec-10 03:00N 25°00' E 125°06'44 7.3 060 / 451015.4 5.4 23.021.626.5
2018-Dec-09 21:00N 24°54' E 124°18'28 9.3 030 / 311015.4 2.2 22.020.626.5
2018-Dec-09 18:00N 25°00' E 123°48'3912.8 050 / 211016.3 5.4 21.520.025.9
2018-Dec-09 15:00N 25°06' E 123°06'3912.3 070 / 231018.6 5.4 20.018.523.4
2018-Dec-09 11:48N 25°09' E 122°23'512.9
2018-Dec-09 11:24N 25°10' E 122°17'613.2
2018-Dec-09 10:58N 25°11' E 122°11'713.2
2018-Dec-09 10:25N 25°11' E 122°03'513.0
2018-Dec-09 10:00N 25°11' E 121°57'712.9
2018-Dec-09 09:28N 25°12' E 121°50'5 9.7
2018-Dec-09 08:57N 25°09' E 121°45'1 2.2
2018-Dec-09 08:25N 25°08' E 121°45'0 0.0
2018-Dec-09 07:47N 25°08' E 121°45'0 0.0
2018-Dec-09 07:23N 25°08' E 121°45'0 0.0
2018-Dec-09 06:59N 25°08' E 121°45'0 0.0
2018-Dec-09 06:29N 25°08' E 121°45'0 0.0
2018-Dec-09 05:59N 25°08' E 121°45'0 0.0
2018-Dec-09 05:26N 25°08' E 121°45'0 0.0
2018-Dec-09 04:55N 25°08' E 121°45'0 0.0
2018-Dec-09 04:20N 25°08' E 121°45'0 0.0
2018-Dec-09 03:59N 25°08' E 121°45'0 0.0
2018-Dec-09 03:29N 25°08' E 121°45'0 0.0
2018-Dec-09 02:59N 25°08' E 121°45'0 0.0
2018-Dec-09 02:30N 25°08' E 121°45'2 3.1
2018-Dec-09 01:55N 25°10' E 121°45'513.1
2018-Dec-09 01:30N 25°15' E 121°45'1015.1
2018-Dec-09 00:52N 25°24' E 121°48'611.9
2018-Dec-09 00:22N 25°30' E 121°50'4 9.6
2018-Dec-08 23:55N 25°34' E 121°51'4 9.3
2018-Dec-08 23:28N 25°38' E 121°53'5 9.8
2018-Dec-08 22:57N 25°43' E 121°54'11 5.7
2018-Dec-08 21:00N 25°54' E 121°54'3210.6 040 / 331022.6 5.4 16.016.023.4
2018-Dec-08 18:00N 26°24' E 122°06'56 9.4 030 / 231023.6 5.4 17.011.924.2
2018-Dec-08 12:00N 27°18' E 122°24'3812.5 020 / 251025.610.8 16.012.723.0
2018-Dec-08 09:00N 27°54' E 122°36'6610.9 030 / 291025.710.8 15.011.623.0
2018-Dec-08 03:00N 26°54' E 122°06'25 8.2 020 / 251025.410.8 17.013.724.5
2018-Dec-08 00:00N 26°30' E 122°00'3010.0 050 / 331024.410.8 27.024.324.5
2018-Dec-07 21:00N 26°00' E 122°00'13 6.9 020 / 311022.4 5.4 26.024.623.2
2018-Dec-07 19:04N 25°47' E 121°56'2 8.6
2018-Dec-07 18:52N 25°46' E 121°55'6 8.2
2018-Dec-07 18:10N 25°40' E 121°55'23134.3
2018-Dec-07 18:00N 25°18' E 121°48'21284.2 030 / 351019.6 5.4 18.014.822.6
2018-Dec-07 17:55N 25°38' E 121°55'4 8.8
2018-Dec-07 17:29N 25°34' E 121°54'4 7.5
2018-Dec-07 16:56N 25°30' E 121°53'2 5.7
2018-Dec-07 16:30N 25°28' E 121°52'3 5.6
2018-Dec-07 15:59N 25°25' E 121°51'3 6.0
2018-Dec-07 15:26N 25°22' E 121°50'4 9.6
2018-Dec-07 15:00N 25°18' E 121°48'1352.4 020 / 271021.910.8 19.017.524.1
2018-Dec-07 14:59N 25°19' E 121°49'5 6.8
2018-Dec-07 14:18N 25°15' E 121°47'2 7.2
2018-Dec-07 14:00N 25°13' E 121°46'5 9.5
2018-Dec-07 13:30N 25°08' E 121°45'0 0.3
2018-Dec-07 12:55N 25°08' E 121°45'0 0.0
2018-Dec-07 12:25N 25°08' E 121°45'3 7.2
2018-Dec-07 12:00N 25°06' E 121°42'345.7 050 / 81021.7 5.4 19.017.524.1
2018-Dec-07 11:55N 25°08' E 121°45'0 0.0
2018-Dec-07 11:26N 25°08' E 121°45'0 0.0
2018-Dec-07 10:55N 25°08' E 121°45'0 0.0
2018-Dec-07 10:27N 25°08' E 121°45'0 0.0
2018-Dec-07 09:57N 25°08' E 121°45'0 0.0
2018-Dec-07 09:27N 25°08' E 121°45'3 6.9
2018-Dec-07 09:00N 25°06' E 121°42'345.5 040 / 121020.0 2.2 18.016.424.1
2018-Dec-07 08:55N 25°08' E 121°45'0 0.0
2018-Dec-07 08:28N 25°08' E 121°45'0 0.0
2018-Dec-07 07:58N 25°08' E 121°45'0 0.5
2018-Dec-07 07:30N 25°08' E 121°45'4 6.4
2018-Dec-07 06:57N 25°12' E 121°45'5 9.8
2018-Dec-07 06:24N 25°13' E 121°50'512.4
2018-Dec-07 05:58N 25°11' E 121°56'47 4.1
2018-Dec-06 18:36N 24°40' E 122°35'110.0
2018-Dec-06 18:27N 24°42' E 122°35'4 9.0
2018-Dec-06 18:00N 24°42' E 122°30'499.6 020 / 271015.2 5.4 22.020.626.6
2018-Dec-06 17:57N 24°46' E 122°31'510.3
2018-Dec-06 17:27N 24°48' E 122°26'810.1
2018-Dec-06 16:39N 24°53' E 122°19'2210.8
2018-Dec-06 14:36N 25°08' E 122°01'211.2
2018-Dec-06 14:25N 25°09' E 121°59'410.1
2018-Dec-06 13:59N 25°11' E 121°55'5 9.5
2018-Dec-06 13:28N 25°12' E 121°49'4 8.7
2018-Dec-06 13:00N 25°11' E 121°45'3 4.7
2018-Dec-06 12:24N 25°08' E 121°45'3 7.6
2018-Dec-06 12:00N 25°06' E 121°42'321.9 040 / 81016.2 5.4 21.019.524.0
2018-Dec-06 11:51N 25°08' E 121°45'0 0.0
2018-Dec-06 11:27N 25°08' E 121°45'0 0.0
2018-Dec-06 10:57N 25°08' E 121°45'0 0.0
2018-Dec-06 10:27N 25°08' E 121°45'0 0.0
2018-Dec-06 09:57N 25°08' E 121°45'0 0.0
2018-Dec-06 09:27N 25°08' E 121°45'3 6.8
2018-Dec-06 09:00N 25°06' E 121°42'375.1 030 / 121013.8 2.2 22.020.624.0
2018-Dec-06 08:57N 25°08' E 121°45'0 0.0
2018-Dec-06 08:27N 25°08' E 121°45'0 0.0
2018-Dec-06 07:57N 25°08' E 121°45'0 0.0
2018-Dec-06 07:30N 25°08' E 121°45'0 0.0
2018-Dec-06 07:00N 25°08' E 121°45'0 0.0
2018-Dec-06 06:30N 25°08' E 121°45'0 0.0
2018-Dec-06 06:00N 25°08' E 121°45'0 0.0
2018-Dec-06 05:26N 25°08' E 121°45'1 2.8
2018-Dec-06 04:59N 25°09' E 121°45'713.1
2018-Dec-06 04:26N 25°16' E 121°45'511.5
2018-Dec-06 03:59N 25°21' E 121°44'1 2.0
2018-Dec-06 03:30N 25°22' E 121°44'5 9.1
2018-Dec-06 03:00N 25°18' E 121°42'5 8.9 020 / 121014.3 5.4 26.024.624.8
2018-Dec-06 02:24N 25°23' E 121°44'0 0.1
2018-Dec-06 02:00N 25°23' E 121°44'1 0.9
2018-Dec-06 01:24N 25°23' E 121°44'1 1.5
2018-Dec-06 01:00N 25°22' E 121°45'1 2.0
2018-Dec-06 00:27N 25°22' E 121°46'511.4
2018-Dec-06 00:00N 25°18' E 121°42'639.8 140 / 81014.3 5.4 22.020.624.8
2018-Dec-05 23:51N 25°21' E 121°47'1 1.8
2018-Dec-05 23:25N 25°21' E 121°48'1 2.3
2018-Dec-05 22:53N 25°21' E 121°49'1 2.2
2018-Dec-05 22:25N 25°20' E 121°50'1 1.9
2018-Dec-05 21:56N 25°20' E 121°51'1 1.3
2018-Dec-05 21:29N 25°20' E 121°52'1 1.1
2018-Dec-05 20:55N 25°21' E 121°53'0 1.0
2018-Dec-05 20:29N 25°21' E 121°53'0 0.8
2018-Dec-05 19:58N 25°21' E 121°53'0 1.0
2018-Dec-05 19:27N 25°22' E 121°53'1 1.4
2018-Dec-05 19:00N 25°22' E 121°53'1 1.9
2018-Dec-05 18:28N 25°23' E 121°53'1 2.1
2018-Dec-05 18:00N 25°24' E 121°52'4487.1
2018-Dec-05 18:00N 25°24' E 121°48'4 6.8 150 / 41012.8 5.4 22.020.623.4
2018-Dec-05 17:27N 25°25' E 121°52'1 1.3
2018-Dec-05 16:58N 25°26' E 121°51'1 1.8
2018-Dec-05 16:29N 25°26' E 121°50'1 1.8
2018-Dec-05 15:55N 25°27' E 121°50'1 1.8
2018-Dec-05 15:28N 25°28' E 121°49'4 8.4
2018-Dec-05 15:00N 25°24' E 121°48'51145.2 120 / 81015.610.8 22.020.627.3
2018-Dec-05 14:59N 25°29' E 121°50'5 9.8
2018-Dec-05 14:30N 25°24' E 121°52'5 9.7
2018-Dec-05 13:57N 25°20' E 121°56'4 9.2
2018-Dec-05 13:30N 25°17' E 121°58'610.7
2018-Dec-05 12:58N 25°12' E 122°02'511.1
2018-Dec-05 12:30N 25°09' E 122°06'611.8
2018-Dec-05 12:00N 25°06' E 122°12'3310.9 090 / 141015.610.8 23.020.127.3
2018-Dec-05 09:00N 25°06' E 122°48'6410.7 060 / 171014.410.8 24.019.627.3
2018-Dec-05 03:00N 24°42' E 123°54'33 5.5 040 / 331016.3 5.4 24.021.127.1
2018-Dec-04 21:00N 24°36' E 123°18'3014.9 020 / 271015.0 5.4 23.021.627.1
2018-Dec-04 19:00N 24°48' E 122°48'4910.1 020 / 291015.1 5.4 24.021.127.1
2018-Dec-04 14:06N 25°09' E 121°59'217.1
2018-Dec-04 14:00N 25°10' E 121°57'1016.2
2018-Dec-04 13:24N 25°12' E 121°47'4 9.8
2018-Dec-04 12:58N 25°08' E 121°45'0 0.2
2018-Dec-04 12:29N 25°08' E 121°45'3 6.7
2018-Dec-04 12:00N 25°06' E 121°42'323.2 040 / 101016.3 5.4 23.020.124.1
2018-Dec-04 11:51N 25°08' E 121°45'0 0.0
2018-Dec-04 11:21N 25°08' E 121°45'0 0.0
2018-Dec-04 10:58N 25°08' E 121°45'0 0.0
2018-Dec-04 10:27N 25°08' E 121°45'0 0.0
2018-Dec-04 09:57N 25°08' E 121°45'0 0.0
2018-Dec-04 09:27N 25°08' E 121°45'3 7.0
2018-Dec-04 09:00N 25°06' E 121°42'388.7 320 / 41013.3 5.4 26.021.824.1
2018-Dec-04 08:57N 25°08' E 121°45'0 0.0
2018-Dec-04 08:30N 25°08' E 121°45'0 0.0
2018-Dec-04 08:00N 25°08' E 121°45'0 0.0
2018-Dec-04 07:30N 25°08' E 121°45'0 0.0
2018-Dec-04 07:00N 25°08' E 121°45'0 0.0
2018-Dec-04 06:30N 25°08' E 121°45'2 3.9
2018-Dec-04 05:53N 25°11' E 121°45'411.7
2018-Dec-04 05:30N 25°14' E 121°48'812.6
2018-Dec-04 04:53N 25°14' E 121°56'410.0
2018-Dec-04 04:27N 25°14' E 122°01'5 9.0
2018-Dec-04 03:56N 25°13' E 122°06'4 8.9
2018-Dec-04 03:29N 25°12' E 122°10'918.5
2018-Dec-04 03:00N 25°06' E 122°18'557.5 190 / 41015.6 5.4 25.020.726.8
2018-Dec-04 02:54N 25°11' E 122°17'6210.5
2018-Dec-03 21:00N 25°00' E 123°24'3316.3 170 / 171014.6 5.4 24.022.626.8
2018-Dec-03 19:00N 25°00' E 124°00'66 8.3 160 / 161014.210.8 25.023.626.7
2018-Dec-03 11:00N 24°48' E 125°12'0 0.0 090 / 81014.810.8 24.021.126.6
2018-Dec-03 06:00N 24°48' E 125°12'0 0.0 100 / 141014.410.8 24.021.126.2
2018-Dec-03 03:00N 24°48' E 125°12'49 8.2 180 / 101017.1 2.2 25.022.226.7
2018-Dec-02 21:00N 24°54' E 124°18'3316.6 180 / 101015.510.8 23.023.026.7
2018-Dec-02 19:00N 25°00' E 123°42'38 9.5 180 / 171013.410.8 24.022.626.6
2018-Dec-02 15:00N 25°00' E 123°00'3311.1 130 / 81015.010.8 24.022.623.7
2018-Dec-02 12:00N 25°06' E 122°24'7 9.5 190 / 161015.010.8 24.021.123.7
2018-Dec-02 11:14N 25°10' E 122°17'311.1
2018-Dec-02 10:55N 25°10' E 122°13'711.4
2018-Dec-02 10:16N 25°11' E 122°05'514.8
2018-Dec-02 09:56N 25°12' E 121°60'814.7
2018-Dec-02 09:23N 25°13' E 121°51'613.3
2018-Dec-02 08:57N 25°10' E 121°45'2 4.8
2018-Dec-02 08:28N 25°08' E 121°45'0 0.0
2018-Dec-02 07:55N 25°08' E 121°45'0 0.0
2018-Dec-02 07:25N 25°08' E 121°45'0 0.0
2018-Dec-02 06:55N 25°08' E 121°45'0 0.0
2018-Dec-02 06:25N 25°08' E 121°45'3 7.3
2018-Dec-02 06:00N 25°06' E 121°42'344.8 170 / 41011.610.8 27.022.823.7
2018-Dec-02 05:55N 25°08' E 121°45'0 0.0
2018-Dec-02 05:24N 25°08' E 121°45'0 0.0
2018-Dec-02 05:00N 25°08' E 121°45'0 0.0
2018-Dec-02 04:25N 25°08' E 121°45'0 0.0
2018-Dec-02 04:00N 25°08' E 121°45'0 0.0
2018-Dec-02 03:28N 25°08' E 121°45'3 6.6
2018-Dec-02 03:00N 25°06' E 121°42'388.1 190 / 41014.210.8 27.022.824.1
2018-Dec-02 02:57N 25°08' E 121°45'0 0.0
2018-Dec-02 02:28N 25°08' E 121°45'1 2.3
2018-Dec-02 01:52N 25°09' E 121°45'412.3
2018-Dec-02 01:30N 25°14' E 121°45'611.6
2018-Dec-02 00:57N 25°20' E 121°46'610.9
2018-Dec-02 00:26N 25°25' E 121°47'1 1.6
2018-Dec-01 23:57N 25°26' E 121°47'0 0.2
2018-Dec-01 23:27N 25°26' E 121°47'0 0.1
2018-Dec-01 22:51N 25°26' E 121°47'0 0.8
2018-Dec-01 22:23N 25°27' E 121°47'0 0.6
2018-Dec-01 21:58N 25°27' E 121°47'1 1.7
2018-Dec-01 21:29N 25°27' E 121°47'510.9
2018-Dec-01 21:00N 25°24' E 121°42'5162.3 110 / 161014.210.8 21.019.524.1
2018-Dec-01 20:58N 25°29' E 121°41'510.9
2018-Dec-01 20:29N 25°29' E 121°35'3 6.7
2018-Dec-01 20:00N 25°27' E 121°32'1 1.7
2018-Dec-01 19:30N 25°28' E 121°33'1 1.9
2018-Dec-01 18:56N 25°28' E 121°34'1 1.9
2018-Dec-01 18:29N 25°29' E 121°35'612.5
2018-Dec-01 18:00N 25°24' E 121°30'7442.4 090 / 171014.610.8 23.020.124.2
2018-Dec-01 17:59N 25°29' E 121°35'1 1.6
2018-Dec-01 17:30N 25°29' E 121°36'1 1.5
2018-Dec-01 17:00N 25°29' E 121°37'1 2.0
2018-Dec-01 16:26N 25°29' E 121°38'611.1
2018-Dec-01 15:53N 25°23' E 121°38'4 9.3
2018-Dec-01 15:26N 25°22' E 121°34'511.3
2018-Dec-01 15:00N 25°18' E 121°30'4114.1 090 / 231015.610.8 24.021.124.9
2018-Dec-01 14:57N 25°22' E 121°31'1 1.6
2018-Dec-01 14:26N 25°23' E 121°31'1 1.7
2018-Dec-01 13:54N 25°23' E 121°30'1 1.7
2018-Dec-01 13:29N 25°24' E 121°29'1 1.8
2018-Dec-01 12:58N 25°24' E 121°29'1 1.9
2018-Dec-01 12:16N 25°25' E 121°28'413.0
2018-Dec-01 12:00N 25°24' E 121°24'352.6 070 / 231016.010.8 23.020.124.9
2018-Dec-01 11:56N 25°26' E 121°27'1 1.6
2018-Dec-01 11:30N 25°26' E 121°27'1 1.6
2018-Dec-01 11:00N 25°27' E 121°27'2 3.7
2018-Dec-01 10:27N 25°26' E 121°25'4 6.4
2018-Dec-01 09:47N 25°24' E 121°29'411.5
2018-Dec-01 09:26N 25°25' E 121°33'511.8
2018-Dec-01 09:00N 25°26' E 121°39'3906.2
2018-Dec-01 09:00N 25°24' E 121°36'817.1 090 / 141014.810.8 26.021.824.9
2018-Dec-01 08:30N 25°25' E 121°45'713.1
2018-Dec-01 07:59N 25°21' E 121°51'713.0
2018-Dec-01 07:26N 25°16' E 121°57'  

Dump ship's entire track history